sensor_id;sensor_type;location;lat;lon;timestamp;temperature;humidity
2012;DHT22;1009;51.436;6.972;2023-08-08T00:00:13;14.90;99.90
2012;DHT22;1009;51.436;6.972;2023-08-08T00:02:40;14.80;99.90
2012;DHT22;1009;51.436;6.972;2023-08-08T00:05:08;14.80;99.90
2012;DHT22;1009;51.436;6.972;2023-08-08T00:07:35;14.70;99.90
2012;DHT22;1009;51.436;6.972;2023-08-08T00:10:02;14.70;99.90
2012;DHT22;1009;51.436;6.972;2023-08-08T00:12:29;14.70;99.90
2012;DHT22;1009;51.436;6.972;2023-08-08T00:14:56;14.60;99.90
2012;DHT22;1009;51.436;6.972;2023-08-08T00:17:23;14.70;99.90
2012;DHT22;1009;51.436;6.972;2023-08-08T00:19:49;14.60;99.90
2012;DHT22;1009;51.436;6.972;2023-08-08T00:22:18;14.70;99.90
2012;DHT22;1009;51.436;6.972;2023-08-08T00:24:45;14.60;99.90
2012;DHT22;1009;51.436;6.972;2023-08-08T00:27:11;14.60;99.90
2012;DHT22;1009;51.436;6.972;2023-08-08T00:29:38;14.60;99.90
2012;DHT22;1009;51.436;6.972;2023-08-08T00:32:06;14.60;99.90
2012;DHT22;1009;51.436;6.972;2023-08-08T00:34:32;14.60;99.90
2012;DHT22;1009;51.436;6.972;2023-08-08T00:36:59;14.60;99.90
2012;DHT22;1009;51.436;6.972;2023-08-08T00:39:27;14.50;99.90
2012;DHT22;1009;51.436;6.972;2023-08-08T00:41:54;14.50;99.90
2012;DHT22;1009;51.436;6.972;2023-08-08T00:44:21;14.50;99.90
2012;DHT22;1009;51.436;6.972;2023-08-08T00:46:48;14.50;99.90
2012;DHT22;1009;51.436;6.972;2023-08-08T00:49:15;14.50;99.90
2012;DHT22;1009;51.436;6.972;2023-08-08T00:51:42;14.50;99.90
2012;DHT22;1009;51.436;6.972;2023-08-08T00:54:10;14.50;99.90
2012;DHT22;1009;51.436;6.972;2023-08-08T00:56:38;14.50;99.90
2012;DHT22;1009;51.436;6.972;2023-08-08T00:59:06;14.40;99.90
2012;DHT22;1009;51.436;6.972;2023-08-08T01:01:34;14.40;99.90
2012;DHT22;1009;51.436;6.972;2023-08-08T01:04:01;14.40;99.90
2012;DHT22;1009;51.436;6.972;2023-08-08T01:06:38;14.30;99.90
2012;DHT22;1009;51.436;6.972;2023-08-08T01:09:10;14.30;99.90
2012;DHT22;1009;51.436;6.972;2023-08-08T01:11:38;14.40;99.90
2012;DHT22;1009;51.436;6.972;2023-08-08T01:14:06;14.50;99.90
2012;DHT22;1009;51.436;6.972;2023-08-08T01:16:34;14.50;99.90
2012;DHT22;1009;51.436;6.972;2023-08-08T01:19:01;14.50;99.90
2012;DHT22;1009;51.436;6.972;2023-08-08T01:21:33;14.40;99.90
2012;DHT22;1009;51.436;6.972;2023-08-08T01:24:12;14.50;99.90
2012;DHT22;1009;51.436;6.972;2023-08-08T01:26:39;14.40;99.90
2012;DHT22;1009;51.436;6.972;2023-08-08T01:29:06;14.30;99.90
2012;DHT22;1009;51.436;6.972;2023-08-08T01:31:33;14.30;99.90
2012;DHT22;1009;51.436;6.972;2023-08-08T01:34:00;14.20;99.90
2012;DHT22;1009;51.436;6.972;2023-08-08T01:36:30;14.30;99.90
2012;DHT22;1009;51.436;6.972;2023-08-08T01:39:00;14.30;99.90
2012;DHT22;1009;51.436;6.972;2023-08-08T01:41:31;14.20;99.90
2012;DHT22;1009;51.436;6.972;2023-08-08T01:43:59;14.20;99.90
2012;DHT22;1009;51.436;6.972;2023-08-08T01:46:27;14.10;99.90
2012;DHT22;1009;51.436;6.972;2023-08-08T01:48:54;14.20;99.90
2012;DHT22;1009;51.436;6.972;2023-08-08T01:51:21;14.20;99.90
2012;DHT22;1009;51.436;6.972;2023-08-08T01:53:49;14.20;99.90
2012;DHT22;1009;51.436;6.972;2023-08-08T01:56:16;14.20;99.90
2012;DHT22;1009;51.436;6.972;2023-08-08T01:58:44;14.20;99.90
2012;DHT22;1009;51.436;6.972;2023-08-08T02:01:11;14.20;99.90
2012;DHT22;1009;51.436;6.972;2023-08-08T02:03:38;14.20;99.90
2012;DHT22;1009;51.436;6.972;2023-08-08T02:06:05;14.20;99.90
2012;DHT22;1009;51.436;6.972;2023-08-08T02:08:32;14.30;99.90
2012;DHT22;1009;51.436;6.972;2023-08-08T02:10:58;14.20;99.90
2012;DHT22;1009;51.436;6.972;2023-08-08T02:13:25;14.20;99.90
2012;DHT22;1009;51.436;6.972;2023-08-08T02:15:53;14.20;99.90
2012;DHT22;1009;51.436;6.972;2023-08-08T02:18:20;14.20;99.90
2012;DHT22;1009;51.436;6.972;2023-08-08T02:20:47;14.20;99.90
2012;DHT22;1009;51.436;6.972;2023-08-08T02:23:14;14.10;99.90
2012;DHT22;1009;51.436;6.972;2023-08-08T02:25:41;14.10;99.90
2012;DHT22;1009;51.436;6.972;2023-08-08T02:28:07;14.20;99.90
2012;DHT22;1009;51.436;6.972;2023-08-08T02:30:35;14.20;99.90
2012;DHT22;1009;51.436;6.972;2023-08-08T02:33:03;14.10;99.90
2012;DHT22;1009;51.436;6.972;2023-08-08T02:35:30;14.10;99.90
2012;DHT22;1009;51.436;6.972;2023-08-08T02:37:57;14.10;99.90
2012;DHT22;1009;51.436;6.972;2023-08-08T02:40:24;14.00;99.90
2012;DHT22;1009;51.436;6.972;2023-08-08T02:42:52;14.00;99.90
2012;DHT22;1009;51.436;6.972;2023-08-08T02:45:19;14.00;99.90
2012;DHT22;1009;51.436;6.972;2023-08-08T02:47:46;14.00;99.90
2012;DHT22;1009;51.436;6.972;2023-08-08T02:50:14;14.00;99.90
2012;DHT22;1009;51.436;6.972;2023-08-08T02:52:41;14.10;99.90
2012;DHT22;1009;51.436;6.972;2023-08-08T02:55:09;14.00;99.90
2012;DHT22;1009;51.436;6.972;2023-08-08T02:57:35;14.10;99.90
2012;DHT22;1009;51.436;6.972;2023-08-08T03:00:03;14.10;99.90
2012;DHT22;1009;51.436;6.972;2023-08-08T03:02:30;14.10;99.90
2012;DHT22;1009;51.436;6.972;2023-08-08T03:04:57;14.10;99.90
2012;DHT22;1009;51.436;6.972;2023-08-08T03:07:25;14.10;99.90
2012;DHT22;1009;51.436;6.972;2023-08-08T03:09:52;14.10;99.90
2012;DHT22;1009;51.436;6.972;2023-08-08T03:12:19;14.10;99.90
2012;DHT22;1009;51.436;6.972;2023-08-08T03:14:46;14.00;99.90
2012;DHT22;1009;51.436;6.972;2023-08-08T03:17:13;14.00;99.90
2012;DHT22;1009;51.436;6.972;2023-08-08T03:19:40;14.00;99.90
2012;DHT22;1009;51.436;6.972;2023-08-08T03:22:07;14.00;99.90
2012;DHT22;1009;51.436;6.972;2023-08-08T03:24:35;14.00;99.90
2012;DHT22;1009;51.436;6.972;2023-08-08T03:27:02;14.00;99.90
2012;DHT22;1009;51.436;6.972;2023-08-08T03:29:29;14.00;99.90
2012;DHT22;1009;51.436;6.972;2023-08-08T03:31:56;14.10;99.90
2012;DHT22;1009;51.436;6.972;2023-08-08T03:34:23;14.10;99.90
2012;DHT22;1009;51.436;6.972;2023-08-08T03:36:49;14.10;99.90
2012;DHT22;1009;51.436;6.972;2023-08-08T03:39:16;14.10;99.90
2012;DHT22;1009;51.436;6.972;2023-08-08T03:41:45;14.10;99.90
2012;DHT22;1009;51.436;6.972;2023-08-08T03:44:12;14.10;99.90
2012;DHT22;1009;51.436;6.972;2023-08-08T03:46:39;14.10;99.90
2012;DHT22;1009;51.436;6.972;2023-08-08T03:49:06;14.10;99.90
2012;DHT22;1009;51.436;6.972;2023-08-08T03:51:33;14.00;99.90
2012;DHT22;1009;51.436;6.972;2023-08-08T03:54:00;13.90;99.90
2012;DHT22;1009;51.436;6.972;2023-08-08T03:56:28;13.90;99.90
2012;DHT22;1009;51.436;6.972;2023-08-08T03:58:57;14.00;99.90
2012;DHT22;1009;51.436;6.972;2023-08-08T04:01:24;13.90;99.90
2012;DHT22;1009;51.436;6.972;2023-08-08T04:03:51;13.80;99.90
2012;DHT22;1009;51.436;6.972;2023-08-08T04:06:21;13.80;99.90
2012;DHT22;1009;51.436;6.972;2023-08-08T04:08:48;13.80;99.90
2012;DHT22;1009;51.436;6.972;2023-08-08T04:11:15;13.80;99.90
2012;DHT22;1009;51.436;6.972;2023-08-08T04:13:42;13.70;99.90
2012;DHT22;1009;51.436;6.972;2023-08-08T04:16:11;13.70;99.90
2012;DHT22;1009;51.436;6.972;2023-08-08T04:18:38;13.70;99.90
2012;DHT22;1009;51.436;6.972;2023-08-08T04:21:04;13.70;99.90
2012;DHT22;1009;51.436;6.972;2023-08-08T04:23:31;13.70;99.90
2012;DHT22;1009;51.436;6.972;2023-08-08T04:25:58;13.70;99.90
2012;DHT22;1009;51.436;6.972;2023-08-08T04:28:25;13.70;99.90
2012;DHT22;1009;51.436;6.972;2023-08-08T04:30:52;13.80;99.90
2012;DHT22;1009;51.436;6.972;2023-08-08T04:33:21;13.80;99.90
2012;DHT22;1009;51.436;6.972;2023-08-08T04:35:47;13.80;99.90
2012;DHT22;1009;51.436;6.972;2023-08-08T04:38:15;13.80;99.90
2012;DHT22;1009;51.436;6.972;2023-08-08T04:40:41;13.70;99.90
2012;DHT22;1009;51.436;6.972;2023-08-08T04:43:08;13.70;99.90
2012;DHT22;1009;51.436;6.972;2023-08-08T04:45:35;13.70;99.90
2012;DHT22;1009;51.436;6.972;2023-08-08T04:48:02;13.70;99.90
2012;DHT22;1009;51.436;6.972;2023-08-08T04:50:31;13.70;99.90
2012;DHT22;1009;51.436;6.972;2023-08-08T04:52:58;13.70;99.90
2012;DHT22;1009;51.436;6.972;2023-08-08T04:55:25;13.80;99.90
2012;DHT22;1009;51.436;6.972;2023-08-08T04:57:52;13.90;99.90
2012;DHT22;1009;51.436;6.972;2023-08-08T05:00:19;13.80;99.90
2012;DHT22;1009;51.436;6.972;2023-08-08T05:02:45;13.80;99.90
2012;DHT22;1009;51.436;6.972;2023-08-08T05:05:12;13.80;99.90
2012;DHT22;1009;51.436;6.972;2023-08-08T05:07:41;13.80;99.90
2012;DHT22;1009;51.436;6.972;2023-08-08T05:10:08;13.70;99.90
2012;DHT22;1009;51.436;6.972;2023-08-08T05:12:35;13.80;99.90
2012;DHT22;1009;51.436;6.972;2023-08-08T05:15:02;13.80;99.90
2012;DHT22;1009;51.436;6.972;2023-08-08T05:17:29;13.80;99.90
2012;DHT22;1009;51.436;6.972;2023-08-08T05:19:56;13.80;99.90
2012;DHT22;1009;51.436;6.972;2023-08-08T05:22:23;13.70;99.90
2012;DHT22;1009;51.436;6.972;2023-08-08T05:24:51;13.80;99.90
2012;DHT22;1009;51.436;6.972;2023-08-08T05:27:18;13.80;99.90
2012;DHT22;1009;51.436;6.972;2023-08-08T05:29:45;13.90;99.90
2012;DHT22;1009;51.436;6.972;2023-08-08T05:32:12;13.90;99.90
2012;DHT22;1009;51.436;6.972;2023-08-08T05:34:39;13.90;99.90
2012;DHT22;1009;51.436;6.972;2023-08-08T05:37:06;13.90;99.90
2012;DHT22;1009;51.436;6.972;2023-08-08T05:39:32;14.00;99.90
2012;DHT22;1009;51.436;6.972;2023-08-08T05:42:01;14.00;99.90
2012;DHT22;1009;51.436;6.972;2023-08-08T05:44:29;13.90;99.90
2012;DHT22;1009;51.436;6.972;2023-08-08T05:46:55;14.00;99.90
2012;DHT22;1009;51.436;6.972;2023-08-08T05:49:22;14.00;99.90
2012;DHT22;1009;51.436;6.972;2023-08-08T05:51:50;14.00;99.90
2012;DHT22;1009;51.436;6.972;2023-08-08T05:54:20;14.00;99.90
2012;DHT22;1009;51.436;6.972;2023-08-08T05:56:48;14.00;99.90
2012;DHT22;1009;51.436;6.972;2023-08-08T05:59:17;14.00;99.90
2012;DHT22;1009;51.436;6.972;2023-08-08T06:01:44;14.00;99.90
2012;DHT22;1009;51.436;6.972;2023-08-08T06:04:12;14.00;99.90
2012;DHT22;1009;51.436;6.972;2023-08-08T06:06:39;14.00;99.90
2012;DHT22;1009;51.436;6.972;2023-08-08T06:09:06;14.10;99.90
2012;DHT22;1009;51.436;6.972;2023-08-08T06:11:34;14.10;99.90
2012;DHT22;1009;51.436;6.972;2023-08-08T06:14:01;14.10;99.90
2012;DHT22;1009;51.436;6.972;2023-08-08T06:16:29;14.10;99.90
2012;DHT22;1009;51.436;6.972;2023-08-08T06:18:56;14.20;99.90
2012;DHT22;1009;51.436;6.972;2023-08-08T06:21:23;14.30;99.90
2012;DHT22;1009;51.436;6.972;2023-08-08T06:23:51;14.30;99.90
2012;DHT22;1009;51.436;6.972;2023-08-08T06:26:22;14.30;99.90
2012;DHT22;1009;51.436;6.972;2023-08-08T06:28:49;14.30;99.90
2012;DHT22;1009;51.436;6.972;2023-08-08T06:31:17;14.30;99.90
2012;DHT22;1009;51.436;6.972;2023-08-08T06:33:45;14.30;99.90
2012;DHT22;1009;51.436;6.972;2023-08-08T06:36:12;14.30;99.90
2012;DHT22;1009;51.436;6.972;2023-08-08T06:38:39;14.30;99.90
2012;DHT22;1009;51.436;6.972;2023-08-08T06:41:06;14.30;99.90
2012;DHT22;1009;51.436;6.972;2023-08-08T06:43:33;14.40;99.90
2012;DHT22;1009;51.436;6.972;2023-08-08T06:46:00;14.50;99.90
2012;DHT22;1009;51.436;6.972;2023-08-08T06:48:27;14.50;99.90
2012;DHT22;1009;51.436;6.972;2023-08-08T06:50:55;14.50;99.90
2012;DHT22;1009;51.436;6.972;2023-08-08T06:53:22;14.60;99.90
2012;DHT22;1009;51.436;6.972;2023-08-08T06:55:49;14.70;99.90
2012;DHT22;1009;51.436;6.972;2023-08-08T06:58:16;14.80;99.90
2012;DHT22;1009;51.436;6.972;2023-08-08T07:00:43;14.80;99.90
2012;DHT22;1009;51.436;6.972;2023-08-08T07:03:10;14.80;99.90
2012;DHT22;1009;51.436;6.972;2023-08-08T07:05:37;14.80;99.90
2012;DHT22;1009;51.436;6.972;2023-08-08T07:08:06;14.80;99.90
2012;DHT22;1009;51.436;6.972;2023-08-08T07:10:34;14.90;99.90
2012;DHT22;1009;51.436;6.972;2023-08-08T07:13:01;14.90;99.90
2012;DHT22;1009;51.436;6.972;2023-08-08T07:15:28;14.90;99.90
2012;DHT22;1009;51.436;6.972;2023-08-08T07:17:55;15.00;99.90
2012;DHT22;1009;51.436;6.972;2023-08-08T07:20:22;15.10;99.90
2012;DHT22;1009;51.436;6.972;2023-08-08T07:22:49;15.20;99.90
2012;DHT22;1009;51.436;6.972;2023-08-08T07:25:17;15.50;99.90
2012;DHT22;1009;51.436;6.972;2023-08-08T07:27:44;15.60;99.90
2012;DHT22;1009;51.436;6.972;2023-08-08T07:30:12;15.70;99.90
2012;DHT22;1009;51.436;6.972;2023-08-08T07:32:39;15.80;99.90
2012;DHT22;1009;51.436;6.972;2023-08-08T07:35:06;16.00;99.90
2012;DHT22;1009;51.436;6.972;2023-08-08T07:37:34;16.20;99.90
2012;DHT22;1009;51.436;6.972;2023-08-08T07:40:01;16.20;99.90
2012;DHT22;1009;51.436;6.972;2023-08-08T07:42:30;16.20;99.90
2012;DHT22;1009;51.436;6.972;2023-08-08T07:44:57;16.30;99.90
2012;DHT22;1009;51.436;6.972;2023-08-08T07:47:24;16.40;99.90
2012;DHT22;1009;51.436;6.972;2023-08-08T07:49:50;16.30;99.90
2012;DHT22;1009;51.436;6.972;2023-08-08T07:52:17;16.30;99.90
2012;DHT22;1009;51.436;6.972;2023-08-08T07:54:44;16.50;99.90
2012;DHT22;1009;51.436;6.972;2023-08-08T07:57:11;16.70;99.90
2012;DHT22;1009;51.436;6.972;2023-08-08T07:59:39;16.80;99.90
2012;DHT22;1009;51.436;6.972;2023-08-08T08:02:05;17.00;99.90
2012;DHT22;1009;51.436;6.972;2023-08-08T08:04:33;17.20;99.90
2012;DHT22;1009;51.436;6.972;2023-08-08T08:07:00;17.50;99.90
2012;DHT22;1009;51.436;6.972;2023-08-08T08:09:27;17.40;99.90
2012;DHT22;1009;51.436;6.972;2023-08-08T08:11:54;17.30;99.90
2012;DHT22;1009;51.436;6.972;2023-08-08T08:14:21;17.20;99.90
2012;DHT22;1009;51.436;6.972;2023-08-08T08:16:50;17.30;99.90
2012;DHT22;1009;51.436;6.972;2023-08-08T08:19:17;17.30;99.90
2012;DHT22;1009;51.436;6.972;2023-08-08T08:21:43;17.20;99.90
2012;DHT22;1009;51.436;6.972;2023-08-08T08:24:10;17.10;99.90
2012;DHT22;1009;51.436;6.972;2023-08-08T08:26:37;17.00;99.90
2012;DHT22;1009;51.436;6.972;2023-08-08T08:29:04;17.00;99.90
2012;DHT22;1009;51.436;6.972;2023-08-08T08:31:31;16.90;99.90
2012;DHT22;1009;51.436;6.972;2023-08-08T08:33:59;16.80;99.90
2012;DHT22;1009;51.436;6.972;2023-08-08T08:36:26;16.90;99.90
2012;DHT22;1009;51.436;6.972;2023-08-08T08:38:52;17.00;99.90
2012;DHT22;1009;51.436;6.972;2023-08-08T08:41:23;17.20;99.90
2012;DHT22;1009;51.436;6.972;2023-08-08T08:43:51;17.40;99.90
2012;DHT22;1009;51.436;6.972;2023-08-08T08:46:21;17.50;99.90
2012;DHT22;1009;51.436;6.972;2023-08-08T08:48:49;17.50;99.90
2012;DHT22;1009;51.436;6.972;2023-08-08T08:51:18;17.50;99.90
2012;DHT22;1009;51.436;6.972;2023-08-08T08:53:46;17.70;99.90
2012;DHT22;1009;51.436;6.972;2023-08-08T08:56:13;18.00;99.90
2012;DHT22;1009;51.436;6.972;2023-08-08T08:58:40;18.10;99.90
2012;DHT22;1009;51.436;6.972;2023-08-08T09:01:07;18.10;99.90
2012;DHT22;1009;51.436;6.972;2023-08-08T09:03:35;18.10;99.90
2012;DHT22;1009;51.436;6.972;2023-08-08T09:06:03;18.10;99.90
2012;DHT22;1009;51.436;6.972;2023-08-08T09:08:33;18.00;99.90
2012;DHT22;1009;51.436;6.972;2023-08-08T09:11:00;17.90;99.90
2012;DHT22;1009;51.436;6.972;2023-08-08T09:13:26;17.90;99.90
2012;DHT22;1009;51.436;6.972;2023-08-08T09:15:53;18.10;99.90
2012;DHT22;1009;51.436;6.972;2023-08-08T09:18:23;18.20;99.90
2012;DHT22;1009;51.436;6.972;2023-08-08T09:20:50;18.50;99.90
2012;DHT22;1009;51.436;6.972;2023-08-08T09:23:17;18.60;99.90
2012;DHT22;1009;51.436;6.972;2023-08-08T09:25:45;18.50;99.90
2012;DHT22;1009;51.436;6.972;2023-08-08T09:28:12;18.10;99.90
2012;DHT22;1009;51.436;6.972;2023-08-08T09:30:41;18.00;99.90
2012;DHT22;1009;51.436;6.972;2023-08-08T09:33:08;18.10;99.90
2012;DHT22;1009;51.436;6.972;2023-08-08T09:35:38;18.10;99.90
2012;DHT22;1009;51.436;6.972;2023-08-08T09:38:05;18.00;99.90
2012;DHT22;1009;51.436;6.972;2023-08-08T09:40:32;17.80;99.90
2012;DHT22;1009;51.436;6.972;2023-08-08T09:43:00;17.70;99.90
2012;DHT22;1009;51.436;6.972;2023-08-08T09:45:35;17.60;99.90
2012;DHT22;1009;51.436;6.972;2023-08-08T09:48:02;17.60;99.90
2012;DHT22;1009;51.436;6.972;2023-08-08T09:50:30;17.40;99.90
2012;DHT22;1009;51.436;6.972;2023-08-08T09:52:58;17.50;99.90
2012;DHT22;1009;51.436;6.972;2023-08-08T09:55:25;17.90;99.90
2012;DHT22;1009;51.436;6.972;2023-08-08T09:57:53;18.10;99.90
2012;DHT22;1009;51.436;6.972;2023-08-08T10:00:22;18.10;99.90
2012;DHT22;1009;51.436;6.972;2023-08-08T10:02:50;18.10;99.90
2012;DHT22;1009;51.436;6.972;2023-08-08T10:05:18;18.30;99.90
2012;DHT22;1009;51.436;6.972;2023-08-08T10:07:45;18.50;99.90
2012;DHT22;1009;51.436;6.972;2023-08-08T10:10:12;18.70;99.90
2012;DHT22;1009;51.436;6.972;2023-08-08T10:12:39;18.80;99.90
2012;DHT22;1009;51.436;6.972;2023-08-08T10:15:07;18.70;99.90
2012;DHT22;1009;51.436;6.972;2023-08-08T10:17:38;18.80;99.90
2012;DHT22;1009;51.436;6.972;2023-08-08T10:20:07;18.50;99.90
2012;DHT22;1009;51.436;6.972;2023-08-08T10:22:37;18.20;99.90
2012;DHT22;1009;51.436;6.972;2023-08-08T10:25:05;17.90;99.90
2012;DHT22;1009;51.436;6.972;2023-08-08T10:27:33;18.20;99.90
2012;DHT22;1009;51.436;6.972;2023-08-08T10:30:04;18.40;99.90
2012;DHT22;1009;51.436;6.972;2023-08-08T10:32:39;18.50;99.90
2012;DHT22;1009;51.436;6.972;2023-08-08T10:35:07;18.50;99.90
2012;DHT22;1009;51.436;6.972;2023-08-08T10:37:35;18.30;99.90
2012;DHT22;1009;51.436;6.972;2023-08-08T10:40:03;18.20;99.90
2012;DHT22;1009;51.436;6.972;2023-08-08T10:42:32;17.90;99.90
2012;DHT22;1009;51.436;6.972;2023-08-08T10:45:01;17.80;99.90
2012;DHT22;1009;51.436;6.972;2023-08-08T10:47:31;17.80;99.90
2012;DHT22;1009;51.436;6.972;2023-08-08T10:50:04;17.90;99.90
2012;DHT22;1009;51.436;6.972;2023-08-08T10:52:32;18.10;99.90
2012;DHT22;1009;51.436;6.972;2023-08-08T10:55:01;18.10;99.90
2012;DHT22;1009;51.436;6.972;2023-08-08T10:57:28;18.20;99.90
2012;DHT22;1009;51.436;6.972;2023-08-08T10:59:55;18.30;99.90
2012;DHT22;1009;51.436;6.972;2023-08-08T11:02:21;18.70;99.90
2012;DHT22;1009;51.436;6.972;2023-08-08T11:04:49;18.90;99.90
2012;DHT22;1009;51.436;6.972;2023-08-08T11:07:18;18.90;99.90
2012;DHT22;1009;51.436;6.972;2023-08-08T11:09:45;18.90;99.90
2012;DHT22;1009;51.436;6.972;2023-08-08T11:12:15;18.70;99.90
2012;DHT22;1009;51.436;6.972;2023-08-08T11:14:42;18.40;99.90
2012;DHT22;1009;51.436;6.972;2023-08-08T11:17:10;18.20;99.90
2012;DHT22;1009;51.436;6.972;2023-08-08T11:19:41;18.10;99.90
2012;DHT22;1009;51.436;6.972;2023-08-08T11:22:11;17.90;99.90
2012;DHT22;1009;51.436;6.972;2023-08-08T11:24:39;17.70;99.90
2012;DHT22;1009;51.436;6.972;2023-08-08T11:27:06;17.60;99.90
2012;DHT22;1009;51.436;6.972;2023-08-08T11:29:33;17.50;99.90
2012;DHT22;1009;51.436;6.972;2023-08-08T11:32:00;17.40;99.90
2012;DHT22;1009;51.436;6.972;2023-08-08T11:34:30;17.40;99.90
2012;DHT22;1009;51.436;6.972;2023-08-08T11:36:57;17.50;99.90
2012;DHT22;1009;51.436;6.972;2023-08-08T11:39:25;17.70;99.90
2012;DHT22;1009;51.436;6.972;2023-08-08T11:41:55;18.00;99.90
2012;DHT22;1009;51.436;6.972;2023-08-08T11:44:22;18.50;99.90
2012;DHT22;1009;51.436;6.972;2023-08-08T11:46:49;18.80;99.90
2012;DHT22;1009;51.436;6.972;2023-08-08T11:49:17;18.80;99.90
2012;DHT22;1009;51.436;6.972;2023-08-08T11:51:44;18.60;99.90
2012;DHT22;1009;51.436;6.972;2023-08-08T11:54:12;18.40;99.90
2012;DHT22;1009;51.436;6.972;2023-08-08T11:56:39;18.30;99.90
2012;DHT22;1009;51.436;6.972;2023-08-08T11:59:09;18.30;99.90
2012;DHT22;1009;51.436;6.972;2023-08-08T12:01:38;18.50;99.90
2012;DHT22;1009;51.436;6.972;2023-08-08T12:04:05;18.70;99.90
2012;DHT22;1009;51.436;6.972;2023-08-08T12:06:33;18.90;99.90
2012;DHT22;1009;51.436;6.972;2023-08-08T12:09:03;19.10;99.90
2012;DHT22;1009;51.436;6.972;2023-08-08T12:11:34;19.30;99.90
2012;DHT22;1009;51.436;6.972;2023-08-08T12:14:01;19.60;99.90
2012;DHT22;1009;51.436;6.972;2023-08-08T12:16:29;19.90;99.90
2012;DHT22;1009;51.436;6.972;2023-08-08T12:18:56;20.20;99.90
2012;DHT22;1009;51.436;6.972;2023-08-08T12:21:23;20.50;99.90
2012;DHT22;1009;51.436;6.972;2023-08-08T12:23:51;20.80;99.90
2012;DHT22;1009;51.436;6.972;2023-08-08T12:26:18;20.70;99.90
2012;DHT22;1009;51.436;6.972;2023-08-08T12:28:45;20.90;99.90
2012;DHT22;1009;51.436;6.972;2023-08-08T12:31:11;20.80;99.90
2012;DHT22;1009;51.436;6.972;2023-08-08T12:33:39;20.50;99.90
2012;DHT22;1009;51.436;6.972;2023-08-08T12:36:06;20.50;99.90
2012;DHT22;1009;51.436;6.972;2023-08-08T12:38:33;20.50;99.90
2012;DHT22;1009;51.436;6.972;2023-08-08T12:41:01;20.60;99.90
2012;DHT22;1009;51.436;6.972;2023-08-08T12:43:30;20.80;99.90
2012;DHT22;1009;51.436;6.972;2023-08-08T12:45:57;20.70;99.90
2012;DHT22;1009;51.436;6.972;2023-08-08T12:48:23;20.40;99.90
2012;DHT22;1009;51.436;6.972;2023-08-08T12:50:52;20.10;99.90
2012;DHT22;1009;51.436;6.972;2023-08-08T12:53:18;19.90;99.90
2012;DHT22;1009;51.436;6.972;2023-08-08T12:55:45;19.50;99.90
2012;DHT22;1009;51.436;6.972;2023-08-08T12:58:12;19.40;99.90
2012;DHT22;1009;51.436;6.972;2023-08-08T13:00:39;19.30;99.90
2012;DHT22;1009;51.436;6.972;2023-08-08T13:03:05;19.20;99.90
2012;DHT22;1009;51.436;6.972;2023-08-08T13:05:33;19.10;99.90
2012;DHT22;1009;51.436;6.972;2023-08-08T13:08:01;19.10;99.90
2012;DHT22;1009;51.436;6.972;2023-08-08T13:10:28;19.00;99.90
2012;DHT22;1009;51.436;6.972;2023-08-08T13:12:56;18.90;99.90
2012;DHT22;1009;51.436;6.972;2023-08-08T13:15:23;18.70;99.90
2012;DHT22;1009;51.436;6.972;2023-08-08T13:17:49;18.60;99.90
2012;DHT22;1009;51.436;6.972;2023-08-08T13:20:16;18.60;99.90
2012;DHT22;1009;51.436;6.972;2023-08-08T13:22:43;18.70;99.90
2012;DHT22;1009;51.436;6.972;2023-08-08T13:25:11;18.90;99.90
2012;DHT22;1009;51.436;6.972;2023-08-08T13:27:38;19.00;99.90
2012;DHT22;1009;51.436;6.972;2023-08-08T13:30:06;19.40;99.90
2012;DHT22;1009;51.436;6.972;2023-08-08T13:32:33;19.30;99.90
2012;DHT22;1009;51.436;6.972;2023-08-08T13:35:00;19.30;99.90
2012;DHT22;1009;51.436;6.972;2023-08-08T13:37:27;19.40;99.90
2012;DHT22;1009;51.436;6.972;2023-08-08T13:39:53;19.60;99.90
2012;DHT22;1009;51.436;6.972;2023-08-08T13:42:21;19.50;99.90
2012;DHT22;1009;51.436;6.972;2023-08-08T13:44:48;19.20;99.90
2012;DHT22;1009;51.436;6.972;2023-08-08T13:47:15;19.10;99.90
2012;DHT22;1009;51.436;6.972;2023-08-08T13:49:42;19.00;99.90
2012;DHT22;1009;51.436;6.972;2023-08-08T13:52:09;19.00;99.90
2012;DHT22;1009;51.436;6.972;2023-08-08T13:54:36;19.10;99.90
2012;DHT22;1009;51.436;6.972;2023-08-08T13:57:03;19.10;99.90
2012;DHT22;1009;51.436;6.972;2023-08-08T13:59:31;19.10;99.90
2012;DHT22;1009;51.436;6.972;2023-08-08T14:01:58;18.90;99.90
2012;DHT22;1009;51.436;6.972;2023-08-08T14:04:25;18.80;99.90
2012;DHT22;1009;51.436;6.972;2023-08-08T14:06:52;18.80;99.90
2012;DHT22;1009;51.436;6.972;2023-08-08T14:09:19;18.90;99.90
2012;DHT22;1009;51.436;6.972;2023-08-08T14:11:45;18.90;99.90
2012;DHT22;1009;51.436;6.972;2023-08-08T14:14:12;18.80;99.90
2012;DHT22;1009;51.436;6.972;2023-08-08T14:16:40;18.80;99.90
2012;DHT22;1009;51.436;6.972;2023-08-08T14:19:07;18.90;99.90
2012;DHT22;1009;51.436;6.972;2023-08-08T14:21:34;19.20;99.90
2012;DHT22;1009;51.436;6.972;2023-08-08T14:24:01;19.10;99.90
2012;DHT22;1009;51.436;6.972;2023-08-08T14:26:29;19.10;99.90
2012;DHT22;1009;51.436;6.972;2023-08-08T14:28:56;19.10;99.90
2012;DHT22;1009;51.436;6.972;2023-08-08T14:31:22;19.20;99.90
2012;DHT22;1009;51.436;6.972;2023-08-08T14:33:50;19.30;99.90
2012;DHT22;1009;51.436;6.972;2023-08-08T14:36:17;19.30;99.90
2012;DHT22;1009;51.436;6.972;2023-08-08T14:38:44;19.20;99.90
2012;DHT22;1009;51.436;6.972;2023-08-08T14:41:11;19.10;99.90
2012;DHT22;1009;51.436;6.972;2023-08-08T14:43:38;19.10;99.90
2012;DHT22;1009;51.436;6.972;2023-08-08T14:46:05;19.00;99.90
2012;DHT22;1009;51.436;6.972;2023-08-08T14:48:31;19.10;99.90
2012;DHT22;1009;51.436;6.972;2023-08-08T14:51:02;19.00;99.90
2012;DHT22;1009;51.436;6.972;2023-08-08T14:53:29;19.10;99.90
2012;DHT22;1009;51.436;6.972;2023-08-08T14:55:56;19.40;99.90
2012;DHT22;1009;51.436;6.972;2023-08-08T14:58:23;19.30;99.90
2012;DHT22;1009;51.436;6.972;2023-08-08T15:00:50;19.20;99.90
2012;DHT22;1009;51.436;6.972;2023-08-08T15:03:17;19.30;99.90
2012;DHT22;1009;51.436;6.972;2023-08-08T15:05:44;19.30;99.90
2012;DHT22;1009;51.436;6.972;2023-08-08T15:08:15;19.20;99.90
2012;DHT22;1009;51.436;6.972;2023-08-08T15:10:43;19.20;99.90
2012;DHT22;1009;51.436;6.972;2023-08-08T15:13:10;19.30;99.90
2012;DHT22;1009;51.436;6.972;2023-08-08T15:15:37;19.40;99.90
2012;DHT22;1009;51.436;6.972;2023-08-08T15:18:04;19.50;99.90
2012;DHT22;1009;51.436;6.972;2023-08-08T15:20:31;19.50;99.90
2012;DHT22;1009;51.436;6.972;2023-08-08T15:22:58;19.60;99.90
2012;DHT22;1009;51.436;6.972;2023-08-08T15:25:26;19.80;99.90
2012;DHT22;1009;51.436;6.972;2023-08-08T15:27:53;19.80;99.90
2012;DHT22;1009;51.436;6.972;2023-08-08T15:30:19;19.60;99.90
2012;DHT22;1009;51.436;6.972;2023-08-08T15:32:46;19.50;99.90
2012;DHT22;1009;51.436;6.972;2023-08-08T15:35:13;19.50;99.90
2012;DHT22;1009;51.436;6.972;2023-08-08T15:37:40;19.40;99.90
2012;DHT22;1009;51.436;6.972;2023-08-08T15:40:08;19.30;99.90
2012;DHT22;1009;51.436;6.972;2023-08-08T15:42:36;19.30;99.90
2012;DHT22;1009;51.436;6.972;2023-08-08T15:45:06;19.30;99.90
2012;DHT22;1009;51.436;6.972;2023-08-08T15:47:33;19.40;99.90
2012;DHT22;1009;51.436;6.972;2023-08-08T15:50:00;19.50;99.90
2012;DHT22;1009;51.436;6.972;2023-08-08T15:52:27;19.60;99.90
2012;DHT22;1009;51.436;6.972;2023-08-08T15:54:54;19.60;99.90
2012;DHT22;1009;51.436;6.972;2023-08-08T15:57:20;19.50;99.90
2012;DHT22;1009;51.436;6.972;2023-08-08T15:59:48;19.60;99.90
2012;DHT22;1009;51.436;6.972;2023-08-08T16:02:15;19.70;99.90